METAR Data
IDs: Format: Raw Decoded Include TAF

Data at: 1142 UTC 16 Oct 2018

PAGA 161056Z AUTO 02004KT 10SM OVC080 01/M01 A2934 RMK AO2 RAB43E54 SLP937 P0000 T00111011 FZRANO
PAGA 160956Z AUTO 03005KT 10SM OVC070 01/M02 A2934 RMK AO2 RAE02UPB02E34 SLP939 P0000 T00061017 FZRANO
PAGA 160856Z AUTO 36006KT 10SM -RA OVC060 00/M02 A2936 RMK AO2 RAB39 PRESFR SLP945 P0000 60000 T00001017 400221033 58022 FZRANO
PAGA 160756Z AUTO 36004KT 10SM OVC065 00/M02 A2939 RMK AO2 SLP955 T00001022 FZRANO
PAGA 160656Z AUTO 01006KT 10SM CLR 00/M02 A2940 RMK AO2 SLP960 T00001017 FZRANO
PAGA 160556Z AUTO 02006KT 10SM CLR M01/M02 A2942 RMK AO2 SLP966 T10061017 10022 21006 56013 FZRANO
PAGA 160456Z AUTO 01006KT 10SM CLR 00/M01 A2943 RMK AO2 SLP970 T00001011 FZRANO
PAGA 160356Z AUTO 00000KT 10SM CLR 00/M02 A2945 RMK AO2 SLP974 T00001017 FZRANO
PAGA 160256Z AUTO 01005KT 10SM CLR 01/M01 A2946 RMK AO2 SLP980 T00061011 56041 FZRANO
PAGA 160156Z AUTO 02008KT 10SM BKN080 OVC120 02/00 A2950 RMK AO2 SLP992 T00220000 FZRANO
PAGA 160056Z AUTO VRB06KT 10SM SCT090 02/01 A2953 RMK AO2 SLP003 T00170011 FZRANO
PAGA 152356Z AUTO 02006KT 10SM BKN090 01/00 A2958 RMK AO2 SLP021 T00060000 10006 21028 58022 FZRANO
PAGA 152256Z AUTO 36005KT 10SM BKN065 OVC080 00/M01 A2962 RMK AO2 SLP033 T00001006 FZRANO
PAGA 152156Z AUTO VRB03KT 10SM OVC100 M01/M01 A2964 RMK AO2 SLP040 T10061011 FZRANO
PAGA 151956Z AUTO 36004KT 10SM CLR M02/M02 A2966 RMK AO2 SLP046 T10171022 FZRANO
PAGA 151947Z AUTO VRB03KT 10SM FEW004 M02/M02 A2966 RMK AO2 FZRANO
PAGA 151856Z AUTO 02004KT 8SM OVC004 M02/M02 A2967 RMK AO2 SLP049 T10171022 FZRANO
PAGA 151756Z AUTO 00000KT 10SM OVC004 M03/M03 A2969 RMK AO2 SLP056 T10281033 11028 21033 56002 FZRANO
PAGA 151730Z AUTO 00000KT 10SM BKN004 M03/M04 A2970 RMK AO2 FZRANO
PAGA 151656Z AUTO 02003KT 10SM FEW004 M03/M03 A2969 RMK AO2 SLP057 T10281033 FZRANO
PAGA 151651Z AUTO 01004KT 10SM FEW004 M03/M03 A2969 RMK AO2 FZRANO
PAGA 151556Z AUTO 36005KT 10SM CLR M03/M03 A2970 RMK AO2 SLP059 T10281033 FZRANO
PAGA 151456Z AUTO 36003KT 10SM CLR M03/M03 A2971 RMK AO2 SLP062 T10281033 56016 FZRANO
PAGA 151356Z AUTO 00000KT 10SM CLR M03/M03 A2972 RMK AO2 SLP066 T10331033 FZRANO
PAGA 151156Z AUTO 00000KT 10SM FEW001 M03/M04 A2976 RMK AO2 SLP078 T10331039 11017 21033 58010 FZRANO
PAGA 151132Z AUTO 35003KT 1 1/4SM BR OVC001 M03/M04 A2976 RMK AO2 FZRANO
PAGA 151112Z AUTO 34005KT 3/4SM BR BKN001 M03/M03 A2977 RMK AO2 FZRANO
PAGA 151104Z AUTO 34005KT 1 3/4SM BR BKN001 M03/M03 A2978 RMK AO2 VIS 1V3 FZRANO
PAGA 151056Z AUTO 34005KT 2 1/2SM BR SCT001 M03/M03 A2978 RMK AO2 VIS 1 3/4V4 SLP086 T10281033 FZRANO
PAGA 151019Z AUTO 32003KT 3SM BR FEW001 M02/M03 A2978 RMK AO2 FZRANO
PAGA 151007Z AUTO 30003KT 1 1/2SM BR FEW001 M02/M03 A2978 RMK AO2 FZRANO
PAGA 150956Z AUTO 31003KT 6SM BR CLR M03/M03 A2978 RMK AO2 SLP088 T10281033 FZRANO
PAGA 150856Z AUTO 00000KT 10SM CLR M03/M04 A2979 RMK AO2 SLP089 T10281039 400671028 56006 FZRANO
PAGA 150822Z AUTO 00000KT 3SM BR CLR M03/M04 A2979 RMK AO2 FZRANO
PAGA 150809Z AUTO 00000KT 1 3/4SM BR CLR M02/M03 A2979 RMK AO2 FZRANO
PAGA 150756Z AUTO 00000KT 6SM BR CLR M02/M03 A2979 RMK AO2 SLP089 T10221033 FZRANO
PAGA 150556Z AUTO 00000KT 10SM CLR M01/M02 A2980 RMK AO2 SLP095 T10061017 10067 21006 53004 FZRANO
PAGA 150456Z AUTO 00000KT 10SM CLR 03/02 A2980 RMK AO2 SLP094 T00280017
PAGA 150356Z AUTO 00000KT 10SM CLR 05/02 A2979 RMK AO2 SLP090 T00500017
PAGA 150256Z AUTO 08005KT 10SM CLR 06/02 A2979 RMK AO2 SLP091 T00610022 56010
PAGA 150156Z AUTO 08006KT 10SM CLR 07/02 A2980 RMK AO2 SLP093 T00670022
PAGA 150056Z AUTO 09008KT 10SM FEW060 06/03 A2981 RMK AO2 SLP097 T00610028
PAGA 142356Z AUTO 08006KT 10SM BKN060 06/03 A2982 RMK AO2 SLP102 T00610028 10061 20022 58004